sensor_id;sensor_type;location;lat;lon;timestamp;temperature;humidity
66019;HTU21D;52787;51.084;5.816;2023-05-24T00:02:05;13.64;59.58
66019;HTU21D;52787;51.084;5.816;2023-05-24T00:04:32;13.63;59.31
66019;HTU21D;52787;51.084;5.816;2023-05-24T00:06:58;13.60;59.30
66019;HTU21D;52787;51.084;5.816;2023-05-24T00:09:30;13.54;59.13
66019;HTU21D;52787;51.084;5.816;2023-05-24T00:11:57;13.52;59.08
66019;HTU21D;52787;51.084;5.816;2023-05-24T00:14:23;13.51;59.19
66019;HTU21D;52787;51.084;5.816;2023-05-24T00:16:49;13.51;59.33
66019;HTU21D;52787;51.084;5.816;2023-05-24T00:19:15;13.50;59.42
66019;HTU21D;52787;51.084;5.816;2023-05-24T00:21:46;13.56;59.26
66019;HTU21D;52787;51.084;5.816;2023-05-24T00:24:13;13.51;59.41
66019;HTU21D;52787;51.084;5.816;2023-05-24T00:26:39;13.49;59.49
66019;HTU21D;52787;51.084;5.816;2023-05-24T00:29:05;13.51;59.62
66019;HTU21D;52787;51.084;5.816;2023-05-24T00:31:31;13.52;59.44
66019;HTU21D;52787;51.084;5.816;2023-05-24T00:33:57;13.45;59.61
66019;HTU21D;52787;51.084;5.816;2023-05-24T00:36:23;13.41;59.86
66019;HTU21D;52787;51.084;5.816;2023-05-24T00:38:49;13.44;59.54
66019;HTU21D;52787;51.084;5.816;2023-05-24T00:41:15;13.37;59.57
66019;HTU21D;52787;51.084;5.816;2023-05-24T00:43:41;13.30;60.02
66019;HTU21D;52787;51.084;5.816;2023-05-24T00:46:19;13.22;60.42
66019;HTU21D;52787;51.084;5.816;2023-05-24T00:48:48;13.14;60.70
66019;HTU21D;52787;51.084;5.816;2023-05-24T00:51:15;13.08;60.95
66019;HTU21D;52787;51.084;5.816;2023-05-24T00:53:44;13.03;61.04
66019;HTU21D;52787;51.084;5.816;2023-05-24T00:56:16;12.95;61.09
66019;HTU21D;52787;51.084;5.816;2023-05-24T00:58:43;12.92;61.12
66019;HTU21D;52787;51.084;5.816;2023-05-24T01:01:10;12.89;61.27
66019;HTU21D;52787;51.084;5.816;2023-05-24T01:03:36;12.87;61.47
66019;HTU21D;52787;51.084;5.816;2023-05-24T01:06:04;12.85;61.81
66019;HTU21D;52787;51.084;5.816;2023-05-24T01:16:53;12.74;61.53
66019;HTU21D;52787;51.084;5.816;2023-05-24T01:20:15;12.75;61.54
66019;HTU21D;52787;51.084;5.816;2023-05-24T01:26:06;12.71;61.75
66019;HTU21D;52787;51.084;5.816;2023-05-24T01:28:44;12.65;61.82
66019;HTU21D;52787;51.084;5.816;2023-05-24T01:31:13;12.61;62.12
66019;HTU21D;52787;51.084;5.816;2023-05-24T01:33:41;12.61;62.14
66019;HTU21D;52787;51.084;5.816;2023-05-24T01:36:08;12.64;62.00
66019;HTU21D;52787;51.084;5.816;2023-05-24T01:38:33;12.66;61.92
66019;HTU21D;52787;51.084;5.816;2023-05-24T01:41:19;12.67;61.83
66019;HTU21D;52787;51.084;5.816;2023-05-24T01:44:14;12.71;61.71
66019;HTU21D;52787;51.084;5.816;2023-05-24T01:47:13;12.69;61.75
66019;HTU21D;52787;51.084;5.816;2023-05-24T01:49:53;12.64;61.80
66019;HTU21D;52787;51.084;5.816;2023-05-24T01:52:26;12.61;61.87
66019;HTU21D;52787;51.084;5.816;2023-05-24T01:54:55;12.60;61.98
66019;HTU21D;52787;51.084;5.816;2023-05-24T01:57:23;12.50;62.27
66019;HTU21D;52787;51.084;5.816;2023-05-24T01:59:53;12.50;62.41
66019;HTU21D;52787;51.084;5.816;2023-05-24T02:02:20;12.50;62.25
66019;HTU21D;52787;51.084;5.816;2023-05-24T02:04:46;12.43;62.41
66019;HTU21D;52787;51.084;5.816;2023-05-24T02:07:12;12.42;62.56
66019;HTU21D;52787;51.084;5.816;2023-05-24T02:09:38;12.43;62.49
66019;HTU21D;52787;51.084;5.816;2023-05-24T02:12:04;12.43;62.56
66019;HTU21D;52787;51.084;5.816;2023-05-24T02:14:30;12.40;62.69
66019;HTU21D;52787;51.084;5.816;2023-05-24T02:16:56;12.31;63.08
66019;HTU21D;52787;51.084;5.816;2023-05-24T02:19:24;12.25;63.51
66019;HTU21D;52787;51.084;5.816;2023-05-24T02:21:50;12.19;63.82
66019;HTU21D;52787;51.084;5.816;2023-05-24T02:24:16;12.15;64.05
66019;HTU21D;52787;51.084;5.816;2023-05-24T02:26:43;12.11;64.47
66019;HTU21D;52787;51.084;5.816;2023-05-24T02:29:10;12.10;64.61
66019;HTU21D;52787;51.084;5.816;2023-05-24T02:31:35;12.12;64.56
66019;HTU21D;52787;51.084;5.816;2023-05-24T02:34:01;12.18;64.23
66019;HTU21D;52787;51.084;5.816;2023-05-24T02:36:27;12.14;64.18
66019;HTU21D;52787;51.084;5.816;2023-05-24T02:38:53;12.13;64.10
66019;HTU21D;52787;51.084;5.816;2023-05-24T02:41:19;12.06;64.29
66019;HTU21D;52787;51.084;5.816;2023-05-24T02:43:46;11.97;64.66
66019;HTU21D;52787;51.084;5.816;2023-05-24T02:46:14;11.89;64.98
66019;HTU21D;52787;51.084;5.816;2023-05-24T02:48:40;11.88;64.92
66019;HTU21D;52787;51.084;5.816;2023-05-24T02:51:06;11.81;65.13
66019;HTU21D;52787;51.084;5.816;2023-05-24T02:53:32;11.73;65.29
66019;HTU21D;52787;51.084;5.816;2023-05-24T02:55:58;11.71;65.25
66019;HTU21D;52787;51.084;5.816;2023-05-24T02:58:25;11.69;65.61
66019;HTU21D;52787;51.084;5.816;2023-05-24T03:00:55;11.64;65.91
66019;HTU21D;52787;51.084;5.816;2023-05-24T03:03:20;11.61;66.03
66019;HTU21D;52787;51.084;5.816;2023-05-24T03:05:46;11.59;66.01
66019;HTU21D;52787;51.084;5.816;2023-05-24T03:08:12;11.56;65.98
66019;HTU21D;52787;51.084;5.816;2023-05-24T03:10:38;11.51;66.17
66019;HTU21D;52787;51.084;5.816;2023-05-24T03:13:04;11.47;66.28
66019;HTU21D;52787;51.084;5.816;2023-05-24T03:15:30;11.44;66.33
66019;HTU21D;52787;51.084;5.816;2023-05-24T03:17:55;11.40;66.69
66019;HTU21D;52787;51.084;5.816;2023-05-24T03:20:21;11.39;67.07
66019;HTU21D;52787;51.084;5.816;2023-05-24T03:22:48;11.39;67.08
66019;HTU21D;52787;51.084;5.816;2023-05-24T03:25:14;11.33;67.27
66019;HTU21D;52787;51.084;5.816;2023-05-24T03:27:40;11.29;67.32
66019;HTU21D;52787;51.084;5.816;2023-05-24T03:30:07;11.26;67.34
66019;HTU21D;52787;51.084;5.816;2023-05-24T03:32:33;11.26;67.27
66019;HTU21D;52787;51.084;5.816;2023-05-24T03:34:59;11.25;67.34
66019;HTU21D;52787;51.084;5.816;2023-05-24T03:37:26;11.27;67.03
66019;HTU21D;52787;51.084;5.816;2023-05-24T03:39:52;11.26;67.16
66019;HTU21D;52787;51.084;5.816;2023-05-24T03:42:18;11.24;67.17
66019;HTU21D;52787;51.084;5.816;2023-05-24T03:44:45;11.17;67.36
66019;HTU21D;52787;51.084;5.816;2023-05-24T03:47:11;11.14;67.49
66019;HTU21D;52787;51.084;5.816;2023-05-24T03:49:37;11.14;67.54
66019;HTU21D;52787;51.084;5.816;2023-05-24T03:52:03;11.25;67.68
66019;HTU21D;52787;51.084;5.816;2023-05-24T03:54:28;11.29;67.64
66019;HTU21D;52787;51.084;5.816;2023-05-24T03:56:54;11.33;67.33
66019;HTU21D;52787;51.084;5.816;2023-05-24T03:59:20;11.41;67.21
66019;HTU21D;52787;51.084;5.816;2023-05-24T04:01:47;11.49;66.60
66019;HTU21D;52787;51.084;5.816;2023-05-24T04:04:12;11.46;66.59
66019;HTU21D;52787;51.084;5.816;2023-05-24T04:06:38;11.39;66.91
66019;HTU21D;52787;51.084;5.816;2023-05-24T04:09:06;11.39;67.10
66019;HTU21D;52787;51.084;5.816;2023-05-24T04:11:32;11.42;67.28
66019;HTU21D;52787;51.084;5.816;2023-05-24T04:13:58;11.41;67.42
66019;HTU21D;52787;51.084;5.816;2023-05-24T04:16:25;11.43;67.39
66019;HTU21D;52787;51.084;5.816;2023-05-24T04:18:55;11.51;67.39
66019;HTU21D;52787;51.084;5.816;2023-05-24T04:21:21;11.54;67.33
66019;HTU21D;52787;51.084;5.816;2023-05-24T04:23:47;11.53;67.38
66019;HTU21D;52787;51.084;5.816;2023-05-24T04:26:13;11.48;67.45
66019;HTU21D;52787;51.084;5.816;2023-05-24T04:28:40;11.40;67.71
66019;HTU21D;52787;51.084;5.816;2023-05-24T04:31:06;11.36;67.94
66019;HTU21D;52787;51.084;5.816;2023-05-24T04:33:32;11.33;68.12
66019;HTU21D;52787;51.084;5.816;2023-05-24T04:35:58;11.30;68.37
66019;HTU21D;52787;51.084;5.816;2023-05-24T04:38:28;11.27;68.42
66019;HTU21D;52787;51.084;5.816;2023-05-24T04:40:54;11.28;68.38
66019;HTU21D;52787;51.084;5.816;2023-05-24T04:43:24;11.31;68.60
66019;HTU21D;52787;51.084;5.816;2023-05-24T04:45:51;11.39;68.59
66019;HTU21D;52787;51.084;5.816;2023-05-24T04:48:20;11.43;68.34
66019;HTU21D;52787;51.084;5.816;2023-05-24T04:50:53;11.47;68.17
66019;HTU21D;52787;51.084;5.816;2023-05-24T04:53:20;11.53;67.97
66019;HTU21D;52787;51.084;5.816;2023-05-24T04:55:48;11.45;68.20
66019;HTU21D;52787;51.084;5.816;2023-05-24T04:58:15;11.41;68.45
66019;HTU21D;52787;51.084;5.816;2023-05-24T05:00:42;11.39;68.68
66019;HTU21D;52787;51.084;5.816;2023-05-24T05:03:09;11.37;68.84
66019;HTU21D;52787;51.084;5.816;2023-05-24T05:05:35;11.42;68.97
66019;HTU21D;52787;51.084;5.816;2023-05-24T05:08:02;11.41;69.28
66019;HTU21D;52787;51.084;5.816;2023-05-24T05:10:28;11.40;69.53
66019;HTU21D;52787;51.084;5.816;2023-05-24T05:12:54;11.41;69.78
66019;HTU21D;52787;51.084;5.816;2023-05-24T05:15:22;11.46;69.76
66019;HTU21D;52787;51.084;5.816;2023-05-24T05:17:49;11.51;69.73
66019;HTU21D;52787;51.084;5.816;2023-05-24T05:20:15;11.54;69.97
66019;HTU21D;52787;51.084;5.816;2023-05-24T05:22:48;11.54;70.17
66019;HTU21D;52787;51.084;5.816;2023-05-24T05:25:14;11.51;70.61
66019;HTU21D;52787;51.084;5.816;2023-05-24T05:27:40;11.48;70.97
66019;HTU21D;52787;51.084;5.816;2023-05-24T05:30:06;11.42;71.30
66019;HTU21D;52787;51.084;5.816;2023-05-24T05:32:33;11.28;72.63
66019;HTU21D;52787;51.084;5.816;2023-05-24T05:34:59;11.26;72.56
66019;HTU21D;52787;51.084;5.816;2023-05-24T05:37:25;11.28;72.74
66019;HTU21D;52787;51.084;5.816;2023-05-24T05:39:50;11.23;73.23
66019;HTU21D;52787;51.084;5.816;2023-05-24T05:42:16;11.17;73.28
66019;HTU21D;52787;51.084;5.816;2023-05-24T05:44:42;11.27;73.49
66019;HTU21D;52787;51.084;5.816;2023-05-24T05:47:08;11.44;73.15
66019;HTU21D;52787;51.084;5.816;2023-05-24T05:49:34;11.56;72.58
66019;HTU21D;52787;51.084;5.816;2023-05-24T05:52:06;11.66;72.34
66019;HTU21D;52787;51.084;5.816;2023-05-24T05:54:32;11.79;71.99
66019;HTU21D;52787;51.084;5.816;2023-05-24T05:56:58;11.97;71.34
66019;HTU21D;52787;51.084;5.816;2023-05-24T05:59:24;12.12;71.00
66019;HTU21D;52787;51.084;5.816;2023-05-24T06:01:50;12.23;70.45
66019;HTU21D;52787;51.084;5.816;2023-05-24T06:04:17;12.33;70.06
66019;HTU21D;52787;51.084;5.816;2023-05-24T06:06:43;12.41;69.64
66019;HTU21D;52787;51.084;5.816;2023-05-24T06:09:16;12.48;69.42
66019;HTU21D;52787;51.084;5.816;2023-05-24T06:11:42;12.59;69.37
66019;HTU21D;52787;51.084;5.816;2023-05-24T06:14:13;12.70;68.63
66019;HTU21D;52787;51.084;5.816;2023-05-24T06:16:43;12.78;68.19
66019;HTU21D;52787;51.084;5.816;2023-05-24T06:19:11;12.87;67.94
66019;HTU21D;52787;51.084;5.816;2023-05-24T06:21:37;12.90;67.82
66019;HTU21D;52787;51.084;5.816;2023-05-24T06:24:05;12.92;67.19
66019;HTU21D;52787;51.084;5.816;2023-05-24T06:26:35;12.88;67.64
66019;HTU21D;52787;51.084;5.816;2023-05-24T06:29:01;12.88;68.05
66019;HTU21D;52787;51.084;5.816;2023-05-24T06:31:27;12.90;67.95
66019;HTU21D;52787;51.084;5.816;2023-05-24T06:33:53;12.86;67.24
66019;HTU21D;52787;51.084;5.816;2023-05-24T06:36:18;12.89;67.59
66019;HTU21D;52787;51.084;5.816;2023-05-24T06:38:44;12.88;68.83
66019;HTU21D;52787;51.084;5.816;2023-05-24T06:41:10;12.87;68.68
66019;HTU21D;52787;51.084;5.816;2023-05-24T06:43:36;12.93;68.89
66019;HTU21D;52787;51.084;5.816;2023-05-24T06:46:02;13.02;68.76
66019;HTU21D;52787;51.084;5.816;2023-05-24T06:48:28;13.06;68.87
66019;HTU21D;52787;51.084;5.816;2023-05-24T06:50:54;13.10;69.68
66019;HTU21D;52787;51.084;5.816;2023-05-24T06:53:20;13.18;69.39
66019;HTU21D;52787;51.084;5.816;2023-05-24T06:55:45;13.27;69.26
66019;HTU21D;52787;51.084;5.816;2023-05-24T06:58:11;13.36;68.91
66019;HTU21D;52787;51.084;5.816;2023-05-24T07:00:41;13.38;68.76
66019;HTU21D;52787;51.084;5.816;2023-05-24T07:03:12;13.44;68.75
66019;HTU21D;52787;51.084;5.816;2023-05-24T07:05:37;13.45;68.73
66019;HTU21D;52787;51.084;5.816;2023-05-24T07:08:04;13.58;68.53
66019;HTU21D;52787;51.084;5.816;2023-05-24T07:10:29;13.79;68.17
66019;HTU21D;52787;51.084;5.816;2023-05-24T07:12:55;13.98;67.81
66019;HTU21D;52787;51.084;5.816;2023-05-24T07:15:21;14.08;66.64
66019;HTU21D;52787;51.084;5.816;2023-05-24T07:17:47;14.18;65.61
66019;HTU21D;52787;51.084;5.816;2023-05-24T07:20:12;14.27;65.29
66019;HTU21D;52787;51.084;5.816;2023-05-24T07:22:39;14.29;65.40
66019;HTU21D;52787;51.084;5.816;2023-05-24T07:25:06;14.27;65.85
66019;HTU21D;52787;51.084;5.816;2023-05-24T07:27:32;14.34;65.59
66019;HTU21D;52787;51.084;5.816;2023-05-24T07:29:58;14.48;64.50
66019;HTU21D;52787;51.084;5.816;2023-05-24T07:32:23;14.59;63.83
66019;HTU21D;52787;51.084;5.816;2023-05-24T07:34:49;14.77;63.73
66019;HTU21D;52787;51.084;5.816;2023-05-24T07:37:15;14.86;63.05
66019;HTU21D;52787;51.084;5.816;2023-05-24T07:39:42;14.97;62.62
66019;HTU21D;52787;51.084;5.816;2023-05-24T07:42:08;15.12;62.43
66019;HTU21D;52787;51.084;5.816;2023-05-24T07:44:33;15.29;62.15
66019;HTU21D;52787;51.084;5.816;2023-05-24T07:46:59;15.48;61.10
66019;HTU21D;52787;51.084;5.816;2023-05-24T07:49:27;15.57;60.38
66019;HTU21D;52787;51.084;5.816;2023-05-24T07:51:53;15.63;59.55
66019;HTU21D;52787;51.084;5.816;2023-05-24T07:54:22;15.68;58.60
66019;HTU21D;52787;51.084;5.816;2023-05-24T07:56:48;15.78;58.34
66019;HTU21D;52787;51.084;5.816;2023-05-24T07:59:14;15.81;57.57
66019;HTU21D;52787;51.084;5.816;2023-05-24T08:01:40;15.81;57.38
66019;HTU21D;52787;51.084;5.816;2023-05-24T08:04:06;15.83;57.74
66019;HTU21D;52787;51.084;5.816;2023-05-24T08:06:34;15.86;58.06
66019;HTU21D;52787;51.084;5.816;2023-05-24T08:09:01;15.98;57.32
66019;HTU21D;52787;51.084;5.816;2023-05-24T08:11:28;15.99;57.42
66019;HTU21D;52787;51.084;5.816;2023-05-24T08:13:54;16.14;57.51
66019;HTU21D;52787;51.084;5.816;2023-05-24T08:16:20;16.39;56.68
66019;HTU21D;52787;51.084;5.816;2023-05-24T08:18:46;16.63;55.54
66019;HTU21D;52787;51.084;5.816;2023-05-24T08:21:12;16.71;54.80
66019;HTU21D;52787;51.084;5.816;2023-05-24T08:23:37;16.65;53.29
66019;HTU21D;52787;51.084;5.816;2023-05-24T08:26:03;16.57;53.56
66019;HTU21D;52787;51.084;5.816;2023-05-24T08:28:29;16.48;53.17
66019;HTU21D;52787;51.084;5.816;2023-05-24T08:30:55;16.44;53.20
66019;HTU21D;52787;51.084;5.816;2023-05-24T08:33:21;16.55;52.86
66019;HTU21D;52787;51.084;5.816;2023-05-24T08:35:48;16.81;51.11
66019;HTU21D;52787;51.084;5.816;2023-05-24T08:38:15;16.93;50.66
66019;HTU21D;52787;51.084;5.816;2023-05-24T08:40:41;17.15;51.79
66019;HTU21D;52787;51.084;5.816;2023-05-24T08:43:08;17.32;51.15
66019;HTU21D;52787;51.084;5.816;2023-05-24T08:45:38;17.41;50.33
66019;HTU21D;52787;51.084;5.816;2023-05-24T08:48:05;17.47;50.10
66019;HTU21D;52787;51.084;5.816;2023-05-24T08:50:34;17.53;49.58
66019;HTU21D;52787;51.084;5.816;2023-05-24T08:53:00;17.58;48.48
66019;HTU21D;52787;51.084;5.816;2023-05-24T08:55:32;17.50;48.70
66019;HTU21D;52787;51.084;5.816;2023-05-24T08:57:58;17.44;48.63
66019;HTU21D;52787;51.084;5.816;2023-05-24T09:00:25;17.35;49.47
66019;HTU21D;52787;51.084;5.816;2023-05-24T09:02:51;17.29;48.94
66019;HTU21D;52787;51.084;5.816;2023-05-24T09:05:18;17.24;48.76
66019;HTU21D;52787;51.084;5.816;2023-05-24T09:07:48;17.26;49.34
66019;HTU21D;52787;51.084;5.816;2023-05-24T09:10:19;17.25;49.68
66019;HTU21D;52787;51.084;5.816;2023-05-24T09:12:51;17.30;49.27
66019;HTU21D;52787;51.084;5.816;2023-05-24T09:15:20;17.37;48.86
66019;HTU21D;52787;51.084;5.816;2023-05-24T09:17:46;17.38;48.54
66019;HTU21D;52787;51.084;5.816;2023-05-24T09:20:12;17.50;49.39
66019;HTU21D;52787;51.084;5.816;2023-05-24T09:22:41;17.64;48.44
66019;HTU21D;52787;51.084;5.816;2023-05-24T09:25:08;17.68;48.21
66019;HTU21D;52787;51.084;5.816;2023-05-24T09:27:35;17.72;48.18
66019;HTU21D;52787;51.084;5.816;2023-05-24T09:30:02;17.87;47.94
66019;HTU21D;52787;51.084;5.816;2023-05-24T09:32:30;18.05;47.54
66019;HTU21D;52787;51.084;5.816;2023-05-24T09:34:58;18.32;47.44
66019;HTU21D;52787;51.084;5.816;2023-05-24T09:37:25;18.52;46.57
66019;HTU21D;52787;51.084;5.816;2023-05-24T09:39:53;18.56;46.04
66019;HTU21D;52787;51.084;5.816;2023-05-24T09:42:21;18.64;45.56
66019;HTU21D;52787;51.084;5.816;2023-05-24T09:45:03;18.59;46.26
66019;HTU21D;52787;51.084;5.816;2023-05-24T09:47:37;18.65;46.71
66019;HTU21D;52787;51.084;5.816;2023-05-24T09:50:15;18.88;47.56
66019;HTU21D;52787;51.084;5.816;2023-05-24T09:52:44;19.06;46.99
66019;HTU21D;52787;51.084;5.816;2023-05-24T09:55:19;19.14;45.91
66019;HTU21D;52787;51.084;5.816;2023-05-24T09:58:01;19.20;44.68
66019;HTU21D;52787;51.084;5.816;2023-05-24T10:00:28;19.24;44.32
66019;HTU21D;52787;51.084;5.816;2023-05-24T10:03:06;19.18;44.26
66019;HTU21D;52787;51.084;5.816;2023-05-24T10:05:35;19.33;45.12
66019;HTU21D;52787;51.084;5.816;2023-05-24T10:08:02;19.58;44.18
66019;HTU21D;52787;51.084;5.816;2023-05-24T10:10:32;19.79;44.65
66019;HTU21D;52787;51.084;5.816;2023-05-24T10:13:00;20.03;44.24
66019;HTU21D;52787;51.084;5.816;2023-05-24T10:15:26;20.24;43.17
66019;HTU21D;52787;51.084;5.816;2023-05-24T10:17:54;20.34;43.28
66019;HTU21D;52787;51.084;5.816;2023-05-24T10:20:23;20.39;43.23
66019;HTU21D;52787;51.084;5.816;2023-05-24T10:22:58;20.45;42.71
66019;HTU21D;52787;51.084;5.816;2023-05-24T10:25:28;20.56;41.28
66019;HTU21D;52787;51.084;5.816;2023-05-24T10:28:02;20.64;41.90
66019;HTU21D;52787;51.084;5.816;2023-05-24T10:33:25;20.50;41.33
66019;HTU21D;52787;51.084;5.816;2023-05-24T10:35:52;20.32;42.50
66019;HTU21D;52787;51.084;5.816;2023-05-24T10:38:22;20.21;43.09
66019;HTU21D;52787;51.084;5.816;2023-05-24T10:40:51;20.27;43.11
66019;HTU21D;52787;51.084;5.816;2023-05-24T10:43:17;20.27;42.90
66019;HTU21D;52787;51.084;5.816;2023-05-24T10:45:48;20.33;42.94
66019;HTU21D;52787;51.084;5.816;2023-05-24T10:50:42;20.66;43.13
66019;HTU21D;52787;51.084;5.816;2023-05-24T10:53:11;20.93;42.59
66019;HTU21D;52787;51.084;5.816;2023-05-24T10:55:57;21.21;41.34
66019;HTU21D;52787;51.084;5.816;2023-05-24T11:04:05;20.41;42.18
66019;HTU21D;52787;51.084;5.816;2023-05-24T11:06:52;20.11;42.98
66019;HTU21D;52787;51.084;5.816;2023-05-24T11:09:26;19.94;43.77
66019;HTU21D;52787;51.084;5.816;2023-05-24T11:12:06;19.80;44.06
66019;HTU21D;52787;51.084;5.816;2023-05-24T11:14:37;19.70;45.41
66019;HTU21D;52787;51.084;5.816;2023-05-24T11:17:05;19.77;45.43
66019;HTU21D;52787;51.084;5.816;2023-05-24T11:19:44;19.82;45.16
66019;HTU21D;52787;51.084;5.816;2023-05-24T11:22:13;19.82;44.47
66019;HTU21D;52787;51.084;5.816;2023-05-24T11:24:40;19.79;43.35
66019;HTU21D;52787;51.084;5.816;2023-05-24T11:27:06;19.71;43.87
66019;HTU21D;52787;51.084;5.816;2023-05-24T11:29:40;19.61;43.38
66019;HTU21D;52787;51.084;5.816;2023-05-24T11:32:07;19.39;43.22
66019;HTU21D;52787;51.084;5.816;2023-05-24T11:34:33;19.28;43.66
66019;HTU21D;52787;51.084;5.816;2023-05-24T11:37:01;19.21;44.86
66019;HTU21D;52787;51.084;5.816;2023-05-24T11:39:36;19.16;44.95
66019;HTU21D;52787;51.084;5.816;2023-05-24T11:42:06;19.07;44.48
66019;HTU21D;52787;51.084;5.816;2023-05-24T11:44:34;18.94;44.41
66019;HTU21D;52787;51.084;5.816;2023-05-24T11:47:05;18.89;44.70
66019;HTU21D;52787;51.084;5.816;2023-05-24T11:49:32;18.83;45.24
66019;HTU21D;52787;51.084;5.816;2023-05-24T11:52:00;18.80;44.49
66019;HTU21D;52787;51.084;5.816;2023-05-24T11:54:27;18.79;45.43
66019;HTU21D;52787;51.084;5.816;2023-05-24T11:56:54;18.77;45.90
66019;HTU21D;52787;51.084;5.816;2023-05-24T11:59:25;18.78;45.90
66019;HTU21D;52787;51.084;5.816;2023-05-24T12:02:04;18.77;46.58
66019;HTU21D;52787;51.084;5.816;2023-05-24T12:04:31;18.73;47.33
66019;HTU21D;52787;51.084;5.816;2023-05-24T12:07:00;18.76;47.19
66019;HTU21D;52787;51.084;5.816;2023-05-24T12:09:26;18.82;47.22
66019;HTU21D;52787;51.084;5.816;2023-05-24T12:11:53;18.89;47.16
66019;HTU21D;52787;51.084;5.816;2023-05-24T12:14:23;18.99;47.25
66019;HTU21D;52787;51.084;5.816;2023-05-24T12:16:54;19.05;46.81
66019;HTU21D;52787;51.084;5.816;2023-05-24T12:19:24;19.00;46.52
66019;HTU21D;52787;51.084;5.816;2023-05-24T12:21:55;18.99;46.44
66019;HTU21D;52787;51.084;5.816;2023-05-24T12:24:22;19.01;47.08
66019;HTU21D;52787;51.084;5.816;2023-05-24T12:26:49;19.05;47.12
66019;HTU21D;52787;51.084;5.816;2023-05-24T12:29:16;19.10;47.26
66019;HTU21D;52787;51.084;5.816;2023-05-24T12:31:47;19.13;46.97
66019;HTU21D;52787;51.084;5.816;2023-05-24T12:34:18;19.16;47.12
66019;HTU21D;52787;51.084;5.816;2023-05-24T12:36:45;19.16;47.41
66019;HTU21D;52787;51.084;5.816;2023-05-24T12:39:20;19.20;47.19
66019;HTU21D;52787;51.084;5.816;2023-05-24T12:41:56;19.18;47.12
66019;HTU21D;52787;51.084;5.816;2023-05-24T12:44:24;19.29;46.94
66019;HTU21D;52787;51.084;5.816;2023-05-24T12:46:56;19.39;46.75
66019;HTU21D;52787;51.084;5.816;2023-05-24T12:49:23;19.50;46.90
66019;HTU21D;52787;51.084;5.816;2023-05-24T12:51:51;19.54;46.95
66019;HTU21D;52787;51.084;5.816;2023-05-24T12:54:21;19.60;46.92
66019;HTU21D;52787;51.084;5.816;2023-05-24T12:56:50;19.70;46.05
66019;HTU21D;52787;51.084;5.816;2023-05-24T12:59:16;19.74;46.01
66019;HTU21D;52787;51.084;5.816;2023-05-24T13:01:42;19.83;45.99
66019;HTU21D;52787;51.084;5.816;2023-05-24T13:04:11;19.88;46.15
66019;HTU21D;52787;51.084;5.816;2023-05-24T13:06:36;19.91;46.25
66019;HTU21D;52787;51.084;5.816;2023-05-24T13:09:03;19.91;46.23
66019;HTU21D;52787;51.084;5.816;2023-05-24T13:11:30;19.90;46.02
66019;HTU21D;52787;51.084;5.816;2023-05-24T13:13:56;19.91;46.56
66019;HTU21D;52787;51.084;5.816;2023-05-24T13:16:24;19.98;46.17
66019;HTU21D;52787;51.084;5.816;2023-05-24T13:18:50;19.97;45.65
66019;HTU21D;52787;51.084;5.816;2023-05-24T13:21:17;19.91;45.00
66019;HTU21D;52787;51.084;5.816;2023-05-24T13:23:43;19.88;45.35
66019;HTU21D;52787;51.084;5.816;2023-05-24T13:26:09;19.89;45.56
66019;HTU21D;52787;51.084;5.816;2023-05-24T13:28:35;19.88;45.92
66019;HTU21D;52787;51.084;5.816;2023-05-24T13:31:01;19.87;46.21
66019;HTU21D;52787;51.084;5.816;2023-05-24T13:33:27;19.88;45.65
66019;HTU21D;52787;51.084;5.816;2023-05-24T13:35:53;19.91;46.09
66019;HTU21D;52787;51.084;5.816;2023-05-24T13:38:20;19.98;45.84
66019;HTU21D;52787;51.084;5.816;2023-05-24T13:40:47;20.09;45.75
66019;HTU21D;52787;51.084;5.816;2023-05-24T13:43:14;20.32;46.23
66019;HTU21D;52787;51.084;5.816;2023-05-24T13:45:40;20.61;44.89
66019;HTU21D;52787;51.084;5.816;2023-05-24T13:48:06;20.78;44.61
66019;HTU21D;52787;51.084;5.816;2023-05-24T13:50:33;20.91;43.72
66019;HTU21D;52787;51.084;5.816;2023-05-24T13:53:01;20.83;43.77
66019;HTU21D;52787;51.084;5.816;2023-05-24T13:55:29;20.76;43.37
66019;HTU21D;52787;51.084;5.816;2023-05-24T13:57:55;20.68;43.70
66019;HTU21D;52787;51.084;5.816;2023-05-24T14:00:22;20.53;44.32
66019;HTU21D;52787;51.084;5.816;2023-05-24T14:02:49;20.39;44.77
66019;HTU21D;52787;51.084;5.816;2023-05-24T14:05:16;20.25;44.57
66019;HTU21D;52787;51.084;5.816;2023-05-24T14:07:42;19.91;44.61
66019;HTU21D;52787;51.084;5.816;2023-05-24T14:10:08;19.65;45.07
66019;HTU21D;52787;51.084;5.816;2023-05-24T14:12:35;19.43;46.44
66019;HTU21D;52787;51.084;5.816;2023-05-24T14:15:01;19.39;47.28
66019;HTU21D;52787;51.084;5.816;2023-05-24T14:17:29;19.35;47.45
66019;HTU21D;52787;51.084;5.816;2023-05-24T14:19:55;19.25;47.92
66019;HTU21D;52787;51.084;5.816;2023-05-24T14:22:21;19.17;48.40
66019;HTU21D;52787;51.084;5.816;2023-05-24T14:24:49;19.13;48.31
66019;HTU21D;52787;51.084;5.816;2023-05-24T14:27:15;19.10;48.18
66019;HTU21D;52787;51.084;5.816;2023-05-24T14:29:41;19.00;48.31
66019;HTU21D;52787;51.084;5.816;2023-05-24T14:32:07;18.91;48.57
66019;HTU21D;52787;51.084;5.816;2023-05-24T14:34:33;18.76;49.25
66019;HTU21D;52787;51.084;5.816;2023-05-24T14:36:59;18.70;49.81
66019;HTU21D;52787;51.084;5.816;2023-05-24T14:39:26;18.62;49.98
66019;HTU21D;52787;51.084;5.816;2023-05-24T14:41:51;18.51;50.17
66019;HTU21D;52787;51.084;5.816;2023-05-24T14:44:17;18.46;49.64
66019;HTU21D;52787;51.084;5.816;2023-05-24T14:46:45;18.40;49.82
66019;HTU21D;52787;51.084;5.816;2023-05-24T14:49:11;18.34;49.95
66019;HTU21D;52787;51.084;5.816;2023-05-24T14:51:37;18.29;50.09
66019;HTU21D;52787;51.084;5.816;2023-05-24T14:54:03;18.26;50.30
66019;HTU21D;52787;51.084;5.816;2023-05-24T14:56:29;18.32;50.69
66019;HTU21D;52787;51.084;5.816;2023-05-24T14:58:57;18.35;51.03
66019;HTU21D;52787;51.084;5.816;2023-05-24T15:01:22;18.37;51.11
66019;HTU21D;52787;51.084;5.816;2023-05-24T15:03:48;18.43;51.13
66019;HTU21D;52787;51.084;5.816;2023-05-24T15:06:14;18.52;51.20
66019;HTU21D;52787;51.084;5.816;2023-05-24T15:08:40;18.64;50.86
66019;HTU21D;52787;51.084;5.816;2023-05-24T15:11:06;18.67;50.50
66019;HTU21D;52787;51.084;5.816;2023-05-24T15:13:32;18.64;50.24
66019;HTU21D;52787;51.084;5.816;2023-05-24T15:15:58;18.64;50.31
66019;HTU21D;52787;51.084;5.816;2023-05-24T15:18:29;18.71;50.01
66019;HTU21D;52787;51.084;5.816;2023-05-24T15:20:56;18.81;49.95
66019;HTU21D;52787;51.084;5.816;2023-05-24T15:23:23;18.86;49.20
66019;HTU21D;52787;51.084;5.816;2023-05-24T15:25:49;18.93;48.89
66019;HTU21D;52787;51.084;5.816;2023-05-24T15:28:15;19.00;47.94
66019;HTU21D;52787;51.084;5.816;2023-05-24T15:30:45;19.07;47.67
66019;HTU21D;52787;51.084;5.816;2023-05-24T15:33:12;19.15;47.11
66019;HTU21D;52787;51.084;5.816;2023-05-24T15:35:39;19.20;46.72
66019;HTU21D;52787;51.084;5.816;2023-05-24T15:38:05;19.25;46.74
66019;HTU21D;52787;51.084;5.816;2023-05-24T15:40:31;19.32;46.80
66019;HTU21D;52787;51.084;5.816;2023-05-24T15:42:57;19.45;46.92